Time,TemperatureF,DewpointF,PressureIn,WindDirection,WindDirectionDegrees,WindSpeedMPH,WindSpeedGustMPH,Humidity,HourlyPrecipIn,Conditions,Clouds,dailyrainin,SoftwareType,DateUTC
2013-09-13 00:25:00,61.0,54.0,-100.00,North,5,7.0,12.0,77,-99.99,,,-99.99,,2013-09-13 04:25:00,
2013-09-13 00:34:00,61.0,54.0,-100.00,North,5,7.0,12.0,77,-99.99,,,-99.99,,2013-09-13 04:34:00,
2013-09-13 00:44:00,61.0,54.0,-100.00,North,5,7.0,12.0,77,-99.99,,,-99.99,,2013-09-13 04:44:00,
2013-09-13 00:54:00,60.0,53.0,-100.00,North,0,8.0,11.0,78,-99.99,,,-99.99,,2013-09-13 04:54:00,
2013-09-13 01:22:00,59.0,53.0,-100.00,NNW,340,3.0,7.0,80,-99.99,,,-99.99,,2013-09-13 05:22:00,
2013-09-13 01:53:00,58.0,53.0,-100.00,NW,325,6.0,7.0,84,-99.99,,,-99.99,,2013-09-13 05:53:00,
2013-09-13 02:22:00,57.0,54.0,-100.00,NNW,335,6.0,10.0,88,-99.99,,,-99.99,,2013-09-13 06:22:00,
2013-09-13 02:52:00,56.0,53.0,-100.00,NNW,335,6.0,9.0,89,-99.99,,,-99.99,,2013-09-13 06:52:00,
2013-09-13 03:02:00,56.0,53.0,-100.00,NNW,335,6.0,9.0,89,-99.99,,,-99.99,,2013-09-13 07:02:00,
2013-09-13 03:22:00,55.0,53.0,-100.00,NNW,340,4.0,11.0,90,-99.99,,,-99.99,,2013-09-13 07:22:00,
2013-09-13 03:52:00,55.0,52.0,-100.00,NW,320,4.0,10.0,90,-99.99,,,-99.99,,2013-09-13 07:52:00,
2013-09-13 04:22:00,54.0,52.0,-100.00,NW,325,4.0,9.0,90,-99.99,,,-99.99,,2013-09-13 08:22:00,
2013-09-13 04:52:00,54.0,51.0,-100.00,North,5,4.0,9.0,91,-99.99,,,-99.99,,2013-09-13 08:52:00,
2013-09-13 05:21:00,54.0,52.0,-100.00,NNW,335,4.0,6.0,90,-99.99,,,-99.99,,2013-09-13 09:21:00,
2013-09-13 05:53:00,54.0,51.0,-100.00,NNW,335,3.0,9.0,90,-99.99,,,-99.99,,2013-09-13 09:53:00,
2013-09-13 06:23:00,53.0,51.0,-100.00,NW,325,6.0,12.0,89,-99.99,,,-99.99,,2013-09-13 10:23:00,
2013-09-13 06:42:00,53.0,50.0,-100.00,NW,325,6.0,9.0,88,-99.99,,,-99.99,,2013-09-13 10:42:00,
2013-09-13 06:53:00,53.0,49.0,-100.00,NNW,330,5.0,11.0,85,-99.99,,,-99.99,,2013-09-13 10:53:00,
2013-09-13 07:22:00,53.0,49.0,-100.00,North,355,3.0,9.0,85,-99.99,,,-99.99,,2013-09-13 11:22:00,
2013-09-13 07:52:00,53.0,49.0,-100.00,NNW,335,4.0,9.0,86,-99.99,,,-99.99,,2013-09-13 11:52:00,
2013-09-13 08:22:00,53.0,49.0,-100.00,NNW,335,5.0,11.0,87,-99.99,,,-99.99,,2013-09-13 12:22:00,
2013-09-13 08:52:00,54.0,50.0,-100.00,North,355,3.0,9.0,88,-99.99,,,-99.99,,2013-09-13 12:52:00,
2013-09-13 09:21:00,54.0,51.0,-100.00,North,350,4.0,9.0,89,-99.99,,,-99.99,,2013-09-13 13:21:00,
2013-09-13 09:52:00,55.0,52.0,-100.00,North,355,4.0,9.0,89,-99.99,,,-99.99,,2013-09-13 13:52:00,
2013-09-13 10:22:00,55.0,52.0,-100.00,NNE,20,6.0,12.0,88,-99.99,,,-99.99,,2013-09-13 14:22:00,
2013-09-13 10:42:00,56.0,53.0,-100.00,North,5,6.0,11.0,88,-99.99,,,-99.99,,2013-09-13 14:42:00,
2013-09-13 10:52:00,56.0,53.0,-100.00,North,5,6.0,11.0,86,-99.99,,,-99.99,,2013-09-13 14:52:00,
2013-09-13 11:11:00,57.0,53.0,-100.00,North,0,7.0,12.0,85,-99.99,,,-99.99,,2013-09-13 15:11:00,
2013-09-13 11:22:00,57.0,52.0,-100.00,North,350,7.0,14.0,83,-99.99,,,-99.99,,2013-09-13 15:22:00,
2013-09-13 11:43:00,58.0,52.0,-100.00,North,0,6.0,12.0,81,-99.99,,,-99.99,,2013-09-13 15:43:00,
2013-09-13 11:54:00,59.0,52.0,-100.00,NNW,345,10.0,14.0,77,-99.99,,,-99.99,,2013-09-13 15:54:00,
2013-09-13 12:12:00,59.0,52.0,-100.00,North,0,8.0,14.0,77,-99.99,,,-99.99,,2013-09-13 16:12:00,
2013-09-13 12:24:00,59.0,51.0,-100.00,North,0,11.0,16.0,75,-99.99,,,-99.99,,2013-09-13 16:24:00,
2013-09-13 12:33:00,59.0,51.0,-100.00,North,0,11.0,16.0,75,-99.99,,,-99.99,,2013-09-13 16:33:00,
2013-09-13 12:54:00,59.0,51.0,-100.00,North,350,9.0,13.0,72,-99.99,,,-99.99,,2013-09-13 16:54:00,
2013-09-13 13:13:00,60.0,51.0,-100.00,North,0,10.0,14.0,71,-99.99,,,-99.99,,2013-09-13 17:13:00,
2013-09-13 13:24:00,61.0,51.0,-100.00,NNE,30,9.0,13.0,70,-99.99,,,-99.99,,2013-09-13 17:24:00,
2013-09-13 13:53:00,61.0,49.0,-100.00,North,0,7.0,14.0,66,-99.99,,,-99.99,,2013-09-13 17:53:00,
2013-09-13 14:22:00,60.0,49.0,-100.00,North,5,8.0,17.0,65,-99.99,,,-99.99,,2013-09-13 18:22:00,
2013-09-13 14:52:00,61.0,49.0,-100.00,NNE,15,6.0,13.0,64,-99.99,,,-99.99,,2013-09-13 18:52:00,
2013-09-13 15:22:00,62.0,47.0,-100.00,North,0,8.0,13.0,59,-99.99,,,-99.99,,2013-09-13 19:22:00,
2013-09-13 15:52:00,64.0,48.0,-100.00,North,5,11.0,16.0,56,-99.99,,,-99.99,,2013-09-13 19:52:00,
2013-09-13 16:02:00,64.0,48.0,-100.00,North,5,11.0,16.0,56,-99.99,,,-99.99,,2013-09-13 20:02:00,
2013-09-13 16:22:00,62.0,46.0,-100.00,North,5,10.0,15.0,56,-99.99,,,-99.99,,2013-09-13 20:22:00,
2013-09-13 16:52:00,61.0,47.0,-100.00,NNE,30,11.0,15.0,59,-99.99,,,-99.99,,2013-09-13 20:52:00,
2013-09-13 17:22:00,62.0,47.0,-100.00,NNE,15,10.0,17.0,57,-99.99,,,-99.99,,2013-09-13 21:22:00,
2013-09-13 17:54:00,62.0,47.0,-100.00,North,0,9.0,14.0,57,-99.99,,,-99.99,,2013-09-13 21:54:00,
2013-09-13 18:24:00,61.0,45.0,-100.00,NNW,335,7.0,17.0,56,-99.99,,,-99.99,,2013-09-13 22:24:00,
2013-09-13 18:53:00,62.0,45.0,-100.00,NNW,345,7.0,12.0,53,-99.99,,,-99.99,,2013-09-13 22:53:00,
2013-09-13 19:22:00,60.0,44.0,-100.00,North,0,7.0,13.0,55,-99.99,,,-99.99,,2013-09-13 23:22:00,
2013-09-13 19:52:00,58.0,44.0,-100.00,North,10,6.0,12.0,60,-99.99,,,-99.99,,2013-09-13 23:52:00,
2013-09-13 20:12:00,58.0,44.0,-100.00,North,0,5.0,11.0,61,-99.99,,,-99.99,,2013-09-14 00:12:00,
2013-09-13 20:22:00,56.0,44.0,-100.00,North,0,4.0,10.0,63,-99.99,,,-99.99,,2013-09-14 00:22:00,
2013-09-13 20:53:00,55.0,44.0,-100.00,NNE,25,4.0,7.0,64,-99.99,,,-99.99,,2013-09-14 00:53:00,
2013-09-13 21:22:00,54.0,44.0,-100.00,North,0,5.0,7.0,69,-99.99,,,-99.99,,2013-09-14 01:22:00,
2013-09-13 21:42:00,54.0,45.0,-100.00,North,0,6.0,7.0,71,-99.99,,,-99.99,,2013-09-14 01:42:00,
2013-09-13 21:52:00,53.0,45.0,-100.00,North,0,6.0,9.0,73,-99.99,,,-99.99,,2013-09-14 01:52:00,
2013-09-13 22:22:00,53.0,45.0,-100.00,North,350,1.0,4.0,75,-99.99,,,-99.99,,2013-09-14 02:22:00,
2013-09-13 22:52:00,52.0,45.0,-100.00,North,0,2.0,4.0,79,-99.99,,,-99.99,,2013-09-14 02:52:00,
2013-09-13 23:02:00,52.0,45.0,-100.00,North,0,2.0,4.0,79,-99.99,,,-99.99,,2013-09-14 03:02:00,
2013-09-13 23:22:00,51.0,46.0,-100.00,NNW,340,1.0,2.0,82,-99.99,,,-99.99,,2013-09-14 03:22:00,
2013-09-13 23:44:00,51.0,46.0,-100.00,NW,315,0.0,1.0,83,-99.99,,,-99.99,,2013-09-14 03:44:00,
2013-09-13 23:54:00,50.0,46.0,-100.00,NW,310,0.0,1.0,85,-99.99,,,-99.99,,2013-09-14 03:54:00,